sensor_id;sensor_type;location;lat;lon;timestamp;P1;durP1;ratioP1;P2;durP2;ratioP2
23494;SDS011;26107;50.832;2.950;2023-04-21T00:10:56;13.88;;;9.25;;
23494;SDS011;26107;50.832;2.950;2023-04-21T00:25:57;12.93;;;9.50;;
23494;SDS011;26107;50.832;2.950;2023-04-21T00:41:01;16.23;;;10.23;;
23494;SDS011;26107;50.832;2.950;2023-04-21T00:56:02;14.18;;;9.50;;
23494;SDS011;26107;50.832;2.950;2023-04-21T01:11:09;14.27;;;9.57;;
23494;SDS011;26107;50.832;2.950;2023-04-21T01:26:11;13.40;;;9.07;;
23494;SDS011;26107;50.832;2.950;2023-04-21T01:41:11;14.75;;;10.00;;
23494;SDS011;26107;50.832;2.950;2023-04-21T01:56:13;14.60;;;10.15;;
23494;SDS011;26107;50.832;2.950;2023-04-21T02:11:14;16.00;;;10.90;;
23494;SDS011;26107;50.832;2.950;2023-04-21T02:26:14;21.20;;;12.15;;
23494;SDS011;26107;50.832;2.950;2023-04-21T02:41:15;22.23;;;13.02;;
23494;SDS011;26107;50.832;2.950;2023-04-21T02:56:16;20.52;;;14.23;;
23494;SDS011;26107;50.832;2.950;2023-04-21T03:11:16;24.30;;;14.38;;
23494;SDS011;26107;50.832;2.950;2023-04-21T03:26:17;21.23;;;14.70;;
23494;SDS011;26107;50.832;2.950;2023-04-21T03:41:18;22.98;;;15.45;;
23494;SDS011;26107;50.832;2.950;2023-04-21T03:56:18;25.00;;;14.93;;
23494;SDS011;26107;50.832;2.950;2023-04-21T04:11:19;23.47;;;16.47;;
23494;SDS011;26107;50.832;2.950;2023-04-21T04:26:20;22.88;;;15.88;;
23494;SDS011;26107;50.832;2.950;2023-04-21T04:41:24;23.98;;;16.13;;
23494;SDS011;26107;50.832;2.950;2023-04-21T04:56:24;23.45;;;15.93;;
23494;SDS011;26107;50.832;2.950;2023-04-21T05:11:25;26.25;;;16.85;;
23494;SDS011;26107;50.832;2.950;2023-04-21T05:26:26;27.70;;;17.38;;
23494;SDS011;26107;50.832;2.950;2023-04-21T05:41:27;25.85;;;18.08;;
23494;SDS011;26107;50.832;2.950;2023-04-21T05:56:28;24.70;;;17.20;;
23494;SDS011;26107;50.832;2.950;2023-04-21T06:11:29;29.85;;;19.23;;
23494;SDS011;26107;50.832;2.950;2023-04-21T06:26:29;31.33;;;19.45;;
23494;SDS011;26107;50.832;2.950;2023-04-21T06:41:30;33.17;;;21.92;;
23494;SDS011;26107;50.832;2.950;2023-04-21T06:56:31;33.25;;;22.30;;
23494;SDS011;26107;50.832;2.950;2023-04-21T07:11:32;34.58;;;22.55;;
23494;SDS011;26107;50.832;2.950;2023-04-21T07:26:32;29.48;;;20.10;;
23494;SDS011;26107;50.832;2.950;2023-04-21T07:41:33;29.50;;;20.48;;
23494;SDS011;26107;50.832;2.950;2023-04-21T07:56:37;26.98;;;19.88;;
23494;SDS011;26107;50.832;2.950;2023-04-21T08:11:39;26.50;;;19.25;;
23494;SDS011;26107;50.832;2.950;2023-04-21T08:26:39;27.88;;;20.10;;
23494;SDS011;26107;50.832;2.950;2023-04-21T08:41:40;27.35;;;18.63;;
23494;SDS011;26107;50.832;2.950;2023-04-21T08:56:41;24.67;;;16.45;;
23494;SDS011;26107;50.832;2.950;2023-04-21T09:11:41;18.35;;;13.05;;
23494;SDS011;26107;50.832;2.950;2023-04-21T09:26:42;17.65;;;13.20;;
23494;SDS011;26107;50.832;2.950;2023-04-21T09:41:42;15.82;;;12.02;;
23494;SDS011;26107;50.832;2.950;2023-04-21T09:56:43;15.48;;;10.00;;
23494;SDS011;26107;50.832;2.950;2023-04-21T10:11:50;15.35;;;10.48;;
23494;SDS011;26107;50.832;2.950;2023-04-21T10:26:51;12.95;;;9.52;;
23494;SDS011;26107;50.832;2.950;2023-04-21T10:41:56;14.63;;;11.27;;
23494;SDS011;26107;50.832;2.950;2023-04-21T10:56:58;12.55;;;9.43;;
23494;SDS011;26107;50.832;2.950;2023-04-21T11:12:04;10.63;;;6.93;;
23494;SDS011;26107;50.832;2.950;2023-04-21T11:27:09;8.50;;;6.55;;
23494;SDS011;26107;50.832;2.950;2023-04-21T11:42:11;8.95;;;7.13;;
23494;SDS011;26107;50.832;2.950;2023-04-21T11:57:21;6.70;;;5.03;;
23494;SDS011;26107;50.832;2.950;2023-04-21T12:12:23;8.77;;;6.03;;
23494;SDS011;26107;50.832;2.950;2023-04-21T12:27:25;11.03;;;8.37;;
23494;SDS011;26107;50.832;2.950;2023-04-21T12:42:26;12.32;;;9.55;;
23494;SDS011;26107;50.832;2.950;2023-04-21T12:57:27;11.85;;;9.50;;
23494;SDS011;26107;50.832;2.950;2023-04-21T13:12:27;12.00;;;8.77;;
23494;SDS011;26107;50.832;2.950;2023-04-21T13:27:28;15.15;;;10.57;;
23494;SDS011;26107;50.832;2.950;2023-04-21T13:42:29;16.60;;;9.57;;
23494;SDS011;26107;50.832;2.950;2023-04-21T13:57:29;12.23;;;9.48;;
23494;SDS011;26107;50.832;2.950;2023-04-21T14:12:30;13.88;;;9.63;;
23494;SDS011;26107;50.832;2.950;2023-04-21T14:27:31;10.75;;;8.00;;
23494;SDS011;26107;50.832;2.950;2023-04-21T14:42:32;11.45;;;8.30;;
23494;SDS011;26107;50.832;2.950;2023-04-21T14:57:32;11.20;;;7.10;;
23494;SDS011;26107;50.832;2.950;2023-04-21T15:12:33;8.75;;;6.00;;
23494;SDS011;26107;50.832;2.950;2023-04-21T15:27:34;8.98;;;6.47;;
23494;SDS011;26107;50.832;2.950;2023-04-21T15:42:35;5.65;;;3.97;;
23494;SDS011;26107;50.832;2.950;2023-04-21T15:57:36;8.45;;;5.03;;
23494;SDS011;26107;50.832;2.950;2023-04-21T16:12:37;4.70;;;3.80;;
23494;SDS011;26107;50.832;2.950;2023-04-21T16:27:38;3.40;;;3.10;;
23494;SDS011;26107;50.832;2.950;2023-04-21T16:42:39;4.45;;;2.65;;
23494;SDS011;26107;50.832;2.950;2023-04-21T16:57:39;3.30;;;2.55;;
23494;SDS011;26107;50.832;2.950;2023-04-21T17:12:40;5.18;;;3.78;;
23494;SDS011;26107;50.832;2.950;2023-04-21T17:27:41;4.13;;;3.70;;
23494;SDS011;26107;50.832;2.950;2023-04-21T17:42:42;5.85;;;4.32;;
23494;SDS011;26107;50.832;2.950;2023-04-21T17:57:42;6.32;;;4.32;;
23494;SDS011;26107;50.832;2.950;2023-04-21T18:12:43;4.18;;;3.47;;
23494;SDS011;26107;50.832;2.950;2023-04-21T18:27:44;4.00;;;3.47;;
23494;SDS011;26107;50.832;2.950;2023-04-21T18:42:44;6.20;;;4.47;;
23494;SDS011;26107;50.832;2.950;2023-04-21T18:57:45;7.38;;;5.65;;
23494;SDS011;26107;50.832;2.950;2023-04-21T19:12:46;6.07;;;4.57;;
23494;SDS011;26107;50.832;2.950;2023-04-21T19:27:47;5.43;;;4.35;;
23494;SDS011;26107;50.832;2.950;2023-04-21T19:42:47;5.15;;;4.30;;
23494;SDS011;26107;50.832;2.950;2023-04-21T19:57:48;5.97;;;4.45;;
23494;SDS011;26107;50.832;2.950;2023-04-21T20:12:48;5.68;;;4.03;;
23494;SDS011;26107;50.832;2.950;2023-04-21T20:27:49;4.50;;;3.85;;
23494;SDS011;26107;50.832;2.950;2023-04-21T20:42:50;4.80;;;4.20;;
23494;SDS011;26107;50.832;2.950;2023-04-21T20:57:50;4.20;;;3.60;;
23494;SDS011;26107;50.832;2.950;2023-04-21T21:12:51;3.80;;;3.22;;
23494;SDS011;26107;50.832;2.950;2023-04-21T21:27:52;5.00;;;4.30;;
23494;SDS011;26107;50.832;2.950;2023-04-21T21:42:52;5.97;;;4.65;;
23494;SDS011;26107;50.832;2.950;2023-04-21T21:57:53;5.30;;;3.42;;
23494;SDS011;26107;50.832;2.950;2023-04-21T22:12:54;7.35;;;6.00;;
23494;SDS011;26107;50.832;2.950;2023-04-21T22:27:55;8.05;;;6.13;;
23494;SDS011;26107;50.832;2.950;2023-04-21T22:42:56;8.93;;;6.88;;
23494;SDS011;26107;50.832;2.950;2023-04-21T22:57:57;12.00;;;8.48;;
23494;SDS011;26107;50.832;2.950;2023-04-21T23:12:57;11.38;;;8.82;;
23494;SDS011;26107;50.832;2.950;2023-04-21T23:27:58;16.45;;;11.30;;
23494;SDS011;26107;50.832;2.950;2023-04-21T23:42:58;15.00;;;9.65;;
23494;SDS011;26107;50.832;2.950;2023-04-21T23:58:00;13.70;;;10.32;;
